sensor_id;sensor_type;location;lat;lon;timestamp;pressure;altitude;pressure_sealevel;temperature;humidity
6204;BME280;3135;42.602;23.468;2023-04-16T00:00:13;92039.44;;;8.51;86.01
6204;BME280;3135;42.602;23.468;2023-04-16T00:02:38;92048.16;;;8.24;86.85
6204;BME280;3135;42.602;23.468;2023-04-16T00:05:04;92057.38;;;8.45;85.26
6204;BME280;3135;42.602;23.468;2023-04-16T00:07:29;92057.00;;;8.38;84.64
6204;BME280;3135;42.602;23.468;2023-04-16T00:09:55;92059.41;;;8.34;84.62
6204;BME280;3135;42.602;23.468;2023-04-16T00:12:21;92066.25;;;8.40;84.20
6204;BME280;3135;42.602;23.468;2023-04-16T00:14:47;92055.44;;;8.32;82.96
6204;BME280;3135;42.602;23.468;2023-04-16T00:17:13;92049.66;;;8.30;82.94
6204;BME280;3135;42.602;23.468;2023-04-16T00:19:38;92051.34;;;8.07;83.80
6204;BME280;3135;42.602;23.468;2023-04-16T00:22:04;92055.41;;;7.85;86.22
6204;BME280;3135;42.602;23.468;2023-04-16T00:24:29;92067.06;;;7.89;88.22
6204;BME280;3135;42.602;23.468;2023-04-16T00:26:55;92047.91;;;7.74;90.47
6204;BME280;3135;42.602;23.468;2023-04-16T00:29:21;92057.81;;;7.87;90.60
6204;BME280;3135;42.602;23.468;2023-04-16T00:31:46;92058.44;;;7.79;89.16
6204;BME280;3135;42.602;23.468;2023-04-16T00:34:12;92048.91;;;7.78;90.12
6204;BME280;3135;42.602;23.468;2023-04-16T00:36:37;92061.38;;;7.96;89.68
6204;BME280;3135;42.602;23.468;2023-04-16T00:39:03;92045.78;;;7.89;89.04
6204;BME280;3135;42.602;23.468;2023-04-16T00:41:28;92039.19;;;7.87;88.98
6204;BME280;3135;42.602;23.468;2023-04-16T00:43:53;92058.03;;;7.90;90.99
6204;BME280;3135;42.602;23.468;2023-04-16T00:46:21;92050.09;;;7.85;92.75
6204;BME280;3135;42.602;23.468;2023-04-16T00:48:47;92057.03;;;7.86;93.98
6204;BME280;3135;42.602;23.468;2023-04-16T00:51:13;92043.66;;;7.73;94.28
6204;BME280;3135;42.602;23.468;2023-04-16T00:53:39;92043.00;;;7.62;95.43
6204;BME280;3135;42.602;23.468;2023-04-16T00:56:06;92035.97;;;7.52;96.29
6204;BME280;3135;42.602;23.468;2023-04-16T00:58:34;92039.50;;;7.48;97.05
6204;BME280;3135;42.602;23.468;2023-04-16T01:01:00;92033.78;;;7.40;98.03
6204;BME280;3135;42.602;23.468;2023-04-16T01:03:36;92040.31;;;7.67;96.81
6204;BME280;3135;42.602;23.468;2023-04-16T01:06:02;92049.63;;;7.64;97.82
6204;BME280;3135;42.602;23.468;2023-04-16T01:08:28;91997.72;;;7.34;96.24
6204;BME280;3135;42.602;23.468;2023-04-16T01:10:53;92026.28;;;7.61;95.57
6204;BME280;3135;42.602;23.468;2023-04-16T01:13:19;92030.19;;;7.83;95.53
6204;BME280;3135;42.602;23.468;2023-04-16T01:15:44;92033.81;;;7.73;96.61
6204;BME280;3135;42.602;23.468;2023-04-16T01:18:17;92044.16;;;7.75;97.49
6204;BME280;3135;42.602;23.468;2023-04-16T01:20:43;92021.47;;;7.63;98.00
6204;BME280;3135;42.602;23.468;2023-04-16T01:23:09;92026.34;;;7.56;99.64
6204;BME280;3135;42.602;23.468;2023-04-16T01:25:35;92024.28;;;7.53;99.82
6204;BME280;3135;42.602;23.468;2023-04-16T01:28:01;92034.72;;;7.31;100.00
6204;BME280;3135;42.602;23.468;2023-04-16T01:30:26;92025.28;;;7.38;100.00
6204;BME280;3135;42.602;23.468;2023-04-16T01:32:51;92010.25;;;7.48;99.43
6204;BME280;3135;42.602;23.468;2023-04-16T01:35:17;92012.34;;;7.51;98.92
6204;BME280;3135;42.602;23.468;2023-04-16T01:37:43;92024.16;;;7.45;100.00
6204;BME280;3135;42.602;23.468;2023-04-16T01:40:09;92016.44;;;7.43;100.00
6204;BME280;3135;42.602;23.468;2023-04-16T01:42:35;92005.97;;;7.33;100.00
6204;BME280;3135;42.602;23.468;2023-04-16T01:45:00;92017.03;;;7.40;100.00
6204;BME280;3135;42.602;23.468;2023-04-16T01:47:26;92022.19;;;7.50;100.00
6204;BME280;3135;42.602;23.468;2023-04-16T01:49:51;91996.00;;;7.43;100.00
6204;BME280;3135;42.602;23.468;2023-04-16T01:52:17;92029.72;;;7.62;100.00
6204;BME280;3135;42.602;23.468;2023-04-16T01:54:42;92025.31;;;7.71;99.54
6204;BME280;3135;42.602;23.468;2023-04-16T01:57:08;92020.53;;;7.54;100.00
6204;BME280;3135;42.602;23.468;2023-04-16T01:59:33;92003.81;;;7.35;100.00
6204;BME280;3135;42.602;23.468;2023-04-16T02:02:07;92021.25;;;7.41;100.00
6204;BME280;3135;42.602;23.468;2023-04-16T02:04:35;92014.94;;;7.18;100.00
6204;BME280;3135;42.602;23.468;2023-04-16T02:07:01;92013.06;;;7.18;100.00
6204;BME280;3135;42.602;23.468;2023-04-16T02:09:26;92023.13;;;7.40;100.00
6204;BME280;3135;42.602;23.468;2023-04-16T02:11:51;92014.78;;;7.47;100.00
6204;BME280;3135;42.602;23.468;2023-04-16T02:14:17;92014.59;;;7.43;100.00
6204;BME280;3135;42.602;23.468;2023-04-16T02:16:42;92025.22;;;7.62;100.00
6204;BME280;3135;42.602;23.468;2023-04-16T02:19:08;92011.78;;;7.54;100.00
6204;BME280;3135;42.602;23.468;2023-04-16T02:21:33;92013.94;;;7.52;100.00
6204;BME280;3135;42.602;23.468;2023-04-16T02:23:59;92013.66;;;7.53;100.00
6204;BME280;3135;42.602;23.468;2023-04-16T02:26:24;91988.88;;;7.39;98.27
6204;BME280;3135;42.602;23.468;2023-04-16T02:28:50;91985.13;;;7.40;100.00
6204;BME280;3135;42.602;23.468;2023-04-16T02:31:16;92007.88;;;7.65;100.00
6204;BME280;3135;42.602;23.468;2023-04-16T02:33:43;92015.31;;;7.49;100.00
6204;BME280;3135;42.602;23.468;2023-04-16T02:36:09;92006.19;;;7.36;100.00
6204;BME280;3135;42.602;23.468;2023-04-16T02:38:35;91990.00;;;7.33;100.00
6204;BME280;3135;42.602;23.468;2023-04-16T02:41:01;92017.59;;;7.56;100.00
6204;BME280;3135;42.602;23.468;2023-04-16T02:43:27;92004.38;;;7.51;98.72
6204;BME280;3135;42.602;23.468;2023-04-16T02:45:52;91994.75;;;7.55;96.21
6204;BME280;3135;42.602;23.468;2023-04-16T02:48:18;91995.84;;;7.54;96.13
6204;BME280;3135;42.602;23.468;2023-04-16T02:50:43;91978.97;;;7.45;95.85
6204;BME280;3135;42.602;23.468;2023-04-16T02:53:08;91993.16;;;7.54;95.58
6204;BME280;3135;42.602;23.468;2023-04-16T02:55:34;91968.03;;;7.46;95.87
6204;BME280;3135;42.602;23.468;2023-04-16T02:58:00;91981.88;;;7.43;94.05
6204;BME280;3135;42.602;23.468;2023-04-16T03:00:25;91987.94;;;7.49;93.87
6204;BME280;3135;42.602;23.468;2023-04-16T03:02:51;91978.75;;;7.22;94.73
6204;BME280;3135;42.602;23.468;2023-04-16T03:05:16;91976.81;;;7.09;95.26
6204;BME280;3135;42.602;23.468;2023-04-16T03:07:42;91997.34;;;7.03;97.90
6204;BME280;3135;42.602;23.468;2023-04-16T03:10:08;92003.69;;;7.07;98.92
6204;BME280;3135;42.602;23.468;2023-04-16T03:12:34;91986.94;;;6.88;98.67
6204;BME280;3135;42.602;23.468;2023-04-16T03:15:00;91978.53;;;6.81;99.79
6204;BME280;3135;42.602;23.468;2023-04-16T03:17:26;91992.25;;;6.88;100.00
6204;BME280;3135;42.602;23.468;2023-04-16T03:19:51;91976.50;;;6.73;100.00
6204;BME280;3135;42.602;23.468;2023-04-16T03:22:16;91998.50;;;6.97;100.00
6204;BME280;3135;42.602;23.468;2023-04-16T03:24:42;92000.50;;;7.05;100.00
6204;BME280;3135;42.602;23.468;2023-04-16T03:27:07;91995.13;;;7.10;100.00
6204;BME280;3135;42.602;23.468;2023-04-16T03:29:35;91983.69;;;7.10;100.00
6204;BME280;3135;42.602;23.468;2023-04-16T03:32:02;91989.31;;;7.08;100.00
6204;BME280;3135;42.602;23.468;2023-04-16T03:34:28;91997.91;;;7.00;100.00
6204;BME280;3135;42.602;23.468;2023-04-16T03:36:53;91998.66;;;6.87;100.00
6204;BME280;3135;42.602;23.468;2023-04-16T03:39:18;91965.44;;;6.65;100.00
6204;BME280;3135;42.602;23.468;2023-04-16T03:41:44;91996.16;;;6.72;100.00
6204;BME280;3135;42.602;23.468;2023-04-16T03:44:10;91990.06;;;6.71;100.00
6204;BME280;3135;42.602;23.468;2023-04-16T03:46:35;92007.25;;;6.98;100.00
6204;BME280;3135;42.602;23.468;2023-04-16T03:49:01;92003.16;;;7.05;100.00
6204;BME280;3135;42.602;23.468;2023-04-16T03:51:26;91983.84;;;6.81;100.00
6204;BME280;3135;42.602;23.468;2023-04-16T03:53:52;91992.31;;;6.83;100.00
6204;BME280;3135;42.602;23.468;2023-04-16T03:56:17;91970.53;;;6.62;100.00
6204;BME280;3135;42.602;23.468;2023-04-16T03:58:42;92002.09;;;6.87;100.00
6204;BME280;3135;42.602;23.468;2023-04-16T04:01:08;92015.06;;;6.89;100.00
6204;BME280;3135;42.602;23.468;2023-04-16T04:03:33;92010.78;;;6.93;100.00
6204;BME280;3135;42.602;23.468;2023-04-16T04:05:59;92019.44;;;6.80;100.00
6204;BME280;3135;42.602;23.468;2023-04-16T04:08:25;92001.59;;;6.61;100.00
6204;BME280;3135;42.602;23.468;2023-04-16T04:10:50;92004.75;;;6.87;100.00
6204;BME280;3135;42.602;23.468;2023-04-16T04:13:16;91996.56;;;6.84;100.00
6204;BME280;3135;42.602;23.468;2023-04-16T04:15:41;92003.22;;;7.00;100.00
6204;BME280;3135;42.602;23.468;2023-04-16T04:18:08;91996.00;;;7.06;100.00
6204;BME280;3135;42.602;23.468;2023-04-16T04:20:33;92015.59;;;7.29;100.00
6204;BME280;3135;42.602;23.468;2023-04-16T04:22:58;92016.19;;;7.26;100.00
6204;BME280;3135;42.602;23.468;2023-04-16T04:25:24;92026.81;;;7.26;100.00
6204;BME280;3135;42.602;23.468;2023-04-16T04:27:49;92018.97;;;7.34;100.00
6204;BME280;3135;42.602;23.468;2023-04-16T04:30:15;92025.50;;;7.42;100.00
6204;BME280;3135;42.602;23.468;2023-04-16T04:32:40;92019.84;;;7.49;100.00
6204;BME280;3135;42.602;23.468;2023-04-16T04:35:06;92021.47;;;7.63;100.00
6204;BME280;3135;42.602;23.468;2023-04-16T04:37:31;92019.94;;;7.57;100.00
6204;BME280;3135;42.602;23.468;2023-04-16T04:39:57;92039.47;;;7.66;100.00
6204;BME280;3135;42.602;23.468;2023-04-16T04:42:23;92033.22;;;7.76;100.00
6204;BME280;3135;42.602;23.468;2023-04-16T04:44:48;92038.19;;;7.83;100.00
6204;BME280;3135;42.602;23.468;2023-04-16T04:47:14;92033.94;;;7.82;100.00
6204;BME280;3135;42.602;23.468;2023-04-16T04:49:39;92048.16;;;7.91;100.00
6204;BME280;3135;42.602;23.468;2023-04-16T04:52:05;92020.00;;;7.71;100.00
6204;BME280;3135;42.602;23.468;2023-04-16T04:54:31;92000.13;;;7.68;100.00
6204;BME280;3135;42.602;23.468;2023-04-16T04:56:57;92045.59;;;8.00;100.00
6204;BME280;3135;42.602;23.468;2023-04-16T04:59:23;92025.59;;;7.88;100.00
6204;BME280;3135;42.602;23.468;2023-04-16T05:01:49;92036.56;;;8.01;100.00
6204;BME280;3135;42.602;23.468;2023-04-16T05:04:15;92015.06;;;7.97;100.00
6204;BME280;3135;42.602;23.468;2023-04-16T05:06:41;92040.75;;;8.20;97.51
6204;BME280;3135;42.602;23.468;2023-04-16T05:09:06;92031.78;;;8.16;98.10
6204;BME280;3135;42.602;23.468;2023-04-16T05:11:36;92042.06;;;8.04;98.55
6204;BME280;3135;42.602;23.468;2023-04-16T05:14:02;92045.97;;;8.26;100.00
6204;BME280;3135;42.602;23.468;2023-04-16T05:16:28;92028.94;;;8.27;100.00
6204;BME280;3135;42.602;23.468;2023-04-16T05:18:53;92028.34;;;8.30;99.66
6204;BME280;3135;42.602;23.468;2023-04-16T05:21:20;92027.16;;;8.36;99.72
6204;BME280;3135;42.602;23.468;2023-04-16T05:23:46;92022.56;;;8.41;100.00
6204;BME280;3135;42.602;23.468;2023-04-16T05:26:11;92023.28;;;8.47;100.00
6204;BME280;3135;42.602;23.468;2023-04-16T05:28:36;92034.47;;;8.30;100.00
6204;BME280;3135;42.602;23.468;2023-04-16T05:31:02;92008.34;;;7.86;100.00
6204;BME280;3135;42.602;23.468;2023-04-16T05:33:27;92030.19;;;8.15;100.00
6204;BME280;3135;42.602;23.468;2023-04-16T05:35:53;92022.00;;;8.12;100.00
6204;BME280;3135;42.602;23.468;2023-04-16T05:38:18;92027.25;;;8.31;100.00
6204;BME280;3135;42.602;23.468;2023-04-16T05:40:44;92033.16;;;8.28;100.00
6204;BME280;3135;42.602;23.468;2023-04-16T05:43:09;92054.53;;;8.23;100.00
6204;BME280;3135;42.602;23.468;2023-04-16T05:45:35;92024.31;;;8.00;100.00
6204;BME280;3135;42.602;23.468;2023-04-16T05:48:06;92028.94;;;8.27;100.00
6204;BME280;3135;42.602;23.468;2023-04-16T05:50:34;92042.66;;;8.34;100.00
6204;BME280;3135;42.602;23.468;2023-04-16T05:53:01;92047.41;;;8.04;100.00
6204;BME280;3135;42.602;23.468;2023-04-16T05:55:27;92030.59;;;8.23;100.00
6204;BME280;3135;42.602;23.468;2023-04-16T05:57:52;92041.81;;;8.52;100.00
6204;BME280;3135;42.602;23.468;2023-04-16T06:00:18;92019.53;;;8.48;100.00
6204;BME280;3135;42.602;23.468;2023-04-16T06:02:43;92014.94;;;8.35;100.00
6204;BME280;3135;42.602;23.468;2023-04-16T06:05:09;92023.50;;;8.32;100.00
6204;BME280;3135;42.602;23.468;2023-04-16T06:07:34;92026.03;;;8.56;100.00
6204;BME280;3135;42.602;23.468;2023-04-16T06:10:00;92024.66;;;8.72;100.00
6204;BME280;3135;42.602;23.468;2023-04-16T06:12:25;92030.06;;;9.08;100.00
6204;BME280;3135;42.602;23.468;2023-04-16T06:14:51;92022.84;;;9.23;98.29
6204;BME280;3135;42.602;23.468;2023-04-16T06:17:16;92032.63;;;9.27;95.53
6204;BME280;3135;42.602;23.468;2023-04-16T06:19:43;92034.97;;;9.29;95.45
6204;BME280;3135;42.602;23.468;2023-04-16T06:22:09;92036.00;;;9.55;93.95
6204;BME280;3135;42.602;23.468;2023-04-16T06:24:34;92029.94;;;9.63;91.39
6204;BME280;3135;42.602;23.468;2023-04-16T06:27:00;92032.97;;;9.70;91.26
6204;BME280;3135;42.602;23.468;2023-04-16T06:29:25;92047.78;;;9.77;92.04
6204;BME280;3135;42.602;23.468;2023-04-16T06:31:51;92043.03;;;9.73;92.65
6204;BME280;3135;42.602;23.468;2023-04-16T06:34:16;92044.09;;;9.50;94.97
6204;BME280;3135;42.602;23.468;2023-04-16T06:36:42;92036.50;;;9.43;95.42
6204;BME280;3135;42.602;23.468;2023-04-16T06:39:07;92037.88;;;9.77;93.97
6204;BME280;3135;42.602;23.468;2023-04-16T06:41:33;92028.31;;;9.76;94.99
6204;BME280;3135;42.602;23.468;2023-04-16T06:43:58;92038.56;;;9.83;94.50
6204;BME280;3135;42.602;23.468;2023-04-16T06:46:23;92016.25;;;9.79;94.36
6204;BME280;3135;42.602;23.468;2023-04-16T06:48:49;92044.16;;;9.95;91.84
6204;BME280;3135;42.602;23.468;2023-04-16T06:51:15;92037.59;;;10.01;90.75
6204;BME280;3135;42.602;23.468;2023-04-16T06:53:40;92032.03;;;9.89;93.23
6204;BME280;3135;42.602;23.468;2023-04-16T06:56:07;92038.50;;;10.19;89.74
6204;BME280;3135;42.602;23.468;2023-04-16T06:58:32;92016.72;;;10.26;89.27
6204;BME280;3135;42.602;23.468;2023-04-16T07:00:58;92040.16;;;10.60;87.34
6204;BME280;3135;42.602;23.468;2023-04-16T07:03:23;92026.03;;;10.59;86.97
6204;BME280;3135;42.602;23.468;2023-04-16T07:05:49;92049.44;;;10.62;87.32
6204;BME280;3135;42.602;23.468;2023-04-16T07:08:14;92032.38;;;10.81;85.26
6204;BME280;3135;42.602;23.468;2023-04-16T07:10:40;92036.97;;;10.89;86.32
6204;BME280;3135;42.602;23.468;2023-04-16T07:13:05;92020.34;;;10.92;84.40
6204;BME280;3135;42.602;23.468;2023-04-16T07:15:31;92027.69;;;10.86;85.59
6204;BME280;3135;42.602;23.468;2023-04-16T07:17:56;92035.81;;;11.12;82.32
6204;BME280;3135;42.602;23.468;2023-04-16T07:20:22;92048.44;;;11.38;81.04
6204;BME280;3135;42.602;23.468;2023-04-16T07:22:47;92045.06;;;11.06;80.18
6204;BME280;3135;42.602;23.468;2023-04-16T07:25:13;92051.28;;;11.41;80.28
6204;BME280;3135;42.602;23.468;2023-04-16T07:27:38;92037.72;;;11.38;80.35
6204;BME280;3135;42.602;23.468;2023-04-16T07:30:04;92055.22;;;11.44;79.89
6204;BME280;3135;42.602;23.468;2023-04-16T07:32:30;92036.53;;;11.78;77.75
6204;BME280;3135;42.602;23.468;2023-04-16T07:34:55;92050.69;;;11.70;77.44
6204;BME280;3135;42.602;23.468;2023-04-16T07:37:21;92061.88;;;11.72;77.22
6204;BME280;3135;42.602;23.468;2023-04-16T07:39:46;92054.44;;;11.61;77.94
6204;BME280;3135;42.602;23.468;2023-04-16T07:42:12;92063.75;;;11.81;77.00
6204;BME280;3135;42.602;23.468;2023-04-16T07:44:38;92051.00;;;11.69;76.96
6204;BME280;3135;42.602;23.468;2023-04-16T07:47:03;92060.19;;;12.02;76.46
6204;BME280;3135;42.602;23.468;2023-04-16T07:49:29;92046.63;;;11.99;75.76
6204;BME280;3135;42.602;23.468;2023-04-16T07:51:54;92034.97;;;11.77;75.65
6204;BME280;3135;42.602;23.468;2023-04-16T07:54:20;92030.88;;;12.15;74.97
6204;BME280;3135;42.602;23.468;2023-04-16T07:56:45;92047.38;;;12.43;74.29
6204;BME280;3135;42.602;23.468;2023-04-16T07:59:11;92047.00;;;12.70;72.40
6204;BME280;3135;42.602;23.468;2023-04-16T08:01:36;92040.69;;;12.66;69.63
6204;BME280;3135;42.602;23.468;2023-04-16T08:04:02;92041.41;;;12.84;71.16
6204;BME280;3135;42.602;23.468;2023-04-16T08:06:27;92039.88;;;12.74;67.69
6204;BME280;3135;42.602;23.468;2023-04-16T08:08:52;92045.00;;;12.97;68.66
6204;BME280;3135;42.602;23.468;2023-04-16T08:11:18;92030.56;;;12.81;68.78
6204;BME280;3135;42.602;23.468;2023-04-16T08:13:43;92025.03;;;13.15;68.59
6204;BME280;3135;42.602;23.468;2023-04-16T08:16:09;92021.63;;;13.36;65.69
6204;BME280;3135;42.602;23.468;2023-04-16T08:18:34;92040.31;;;13.53;67.40
6204;BME280;3135;42.602;23.468;2023-04-16T08:21:00;92027.91;;;13.90;66.17
6204;BME280;3135;42.602;23.468;2023-04-16T08:23:25;92039.94;;;14.05;64.40
6204;BME280;3135;42.602;23.468;2023-04-16T08:25:51;92036.81;;;14.03;63.97
6204;BME280;3135;42.602;23.468;2023-04-16T08:28:16;92014.28;;;14.16;65.44
6204;BME280;3135;42.602;23.468;2023-04-16T08:30:42;92021.31;;;14.21;63.00
6204;BME280;3135;42.602;23.468;2023-04-16T08:33:07;92039.91;;;14.47;62.15
6204;BME280;3135;42.602;23.468;2023-04-16T08:35:33;92019.53;;;14.46;61.68
6204;BME280;3135;42.602;23.468;2023-04-16T08:37:58;92018.84;;;14.82;63.18
6204;BME280;3135;42.602;23.468;2023-04-16T08:40:27;92002.22;;;14.35;61.77
6204;BME280;3135;42.602;23.468;2023-04-16T08:42:55;92033.66;;;14.88;61.98
6204;BME280;3135;42.602;23.468;2023-04-16T08:45:25;92027.28;;;15.17;60.77
6204;BME280;3135;42.602;23.468;2023-04-16T08:47:51;92028.41;;;15.65;60.36
6204;BME280;3135;42.602;23.468;2023-04-16T08:50:22;92036.25;;;15.70;55.82
6204;BME280;3135;42.602;23.468;2023-04-16T08:52:53;92023.91;;;15.57;55.79
6204;BME280;3135;42.602;23.468;2023-04-16T08:55:22;92038.47;;;15.93;55.80
6204;BME280;3135;42.602;23.468;2023-04-16T08:57:53;92017.41;;;15.09;55.98
6204;BME280;3135;42.602;23.468;2023-04-16T09:00:22;92017.28;;;15.05;56.11
6204;BME280;3135;42.602;23.468;2023-04-16T09:02:49;92016.50;;;15.54;55.85
6204;BME280;3135;42.602;23.468;2023-04-16T09:05:16;92012.72;;;15.67;56.87
6204;BME280;3135;42.602;23.468;2023-04-16T09:07:45;92018.50;;;16.22;52.91
6204;BME280;3135;42.602;23.468;2023-04-16T09:10:11;92021.25;;;16.66;52.45
6204;BME280;3135;42.602;23.468;2023-04-16T09:12:40;92011.38;;;17.01;51.23
6204;BME280;3135;42.602;23.468;2023-04-16T09:15:08;91987.97;;;16.90;48.88
6204;BME280;3135;42.602;23.468;2023-04-16T09:17:34;91997.38;;;16.96;49.90
6204;BME280;3135;42.602;23.468;2023-04-16T09:19:59;91982.81;;;17.16;49.66
6204;BME280;3135;42.602;23.468;2023-04-16T09:22:25;91993.19;;;17.14;49.17
6204;BME280;3135;42.602;23.468;2023-04-16T09:24:51;91998.94;;;17.13;48.21
6204;BME280;3135;42.602;23.468;2023-04-16T09:27:16;91984.38;;;17.33;46.69
6204;BME280;3135;42.602;23.468;2023-04-16T09:29:41;92004.81;;;17.50;46.24
6204;BME280;3135;42.602;23.468;2023-04-16T09:32:08;91989.53;;;17.22;46.26
6204;BME280;3135;42.602;23.468;2023-04-16T09:34:53;92008.41;;;17.38;46.13
6204;BME280;3135;42.602;23.468;2023-04-16T09:37:19;91995.59;;;17.51;46.21
6204;BME280;3135;42.602;23.468;2023-04-16T09:39:54;91999.09;;;17.35;46.85
6204;BME280;3135;42.602;23.468;2023-04-16T09:42:27;91985.44;;;16.81;47.09
6204;BME280;3135;42.602;23.468;2023-04-16T09:44:54;92003.72;;;17.35;46.79
6204;BME280;3135;42.602;23.468;2023-04-16T09:47:20;92001.06;;;17.54;46.90
6204;BME280;3135;42.602;23.468;2023-04-16T09:49:46;91993.81;;;17.23;45.72
6204;BME280;3135;42.602;23.468;2023-04-16T09:52:16;91998.03;;;17.56;45.34
6204;BME280;3135;42.602;23.468;2023-04-16T09:54:52;91981.66;;;17.49;45.06
6204;BME280;3135;42.602;23.468;2023-04-16T09:57:21;91989.47;;;17.54;46.45
6204;BME280;3135;42.602;23.468;2023-04-16T09:59:59;91984.63;;;17.44;46.77
6204;BME280;3135;42.602;23.468;2023-04-16T10:02:29;91986.59;;;17.62;46.25
6204;BME280;3135;42.602;23.468;2023-04-16T10:04:55;91991.16;;;17.43;45.62
6204;BME280;3135;42.602;23.468;2023-04-16T10:07:22;91989.16;;;18.10;44.63
6204;BME280;3135;42.602;23.468;2023-04-16T10:09:48;91970.31;;;17.94;44.57
6204;BME280;3135;42.602;23.468;2023-04-16T10:12:15;91986.06;;;18.27;45.50
6204;BME280;3135;42.602;23.468;2023-04-16T10:14:41;91978.28;;;18.06;44.76
6204;BME280;3135;42.602;23.468;2023-04-16T10:17:07;91979.09;;;18.07;44.51
6204;BME280;3135;42.602;23.468;2023-04-16T10:19:34;91975.84;;;17.82;45.22
6204;BME280;3135;42.602;23.468;2023-04-16T10:22:00;91981.16;;;17.78;44.84
6204;BME280;3135;42.602;23.468;2023-04-16T10:24:28;91977.66;;;17.43;46.89
6204;BME280;3135;42.602;23.468;2023-04-16T10:26:54;91963.75;;;17.76;45.63
6204;BME280;3135;42.602;23.468;2023-04-16T10:29:20;91977.09;;;18.23;44.05
6204;BME280;3135;42.602;23.468;2023-04-16T10:31:47;91945.50;;;18.08;44.71
6204;BME280;3135;42.602;23.468;2023-04-16T10:34:13;91981.13;;;17.94;45.71
6204;BME280;3135;42.602;23.468;2023-04-16T10:36:40;91965.81;;;17.47;45.82
6204;BME280;3135;42.602;23.468;2023-04-16T10:39:09;91970.88;;;17.68;45.66
6204;BME280;3135;42.602;23.468;2023-04-16T10:41:36;91977.63;;;17.58;46.23
6204;BME280;3135;42.602;23.468;2023-04-16T10:44:07;91960.94;;;17.72;45.55
6204;BME280;3135;42.602;23.468;2023-04-16T10:46:41;91974.31;;;17.65;45.35
6204;BME280;3135;42.602;23.468;2023-04-16T10:49:27;91955.97;;;17.39;45.53
6204;BME280;3135;42.602;23.468;2023-04-16T10:51:53;91972.53;;;17.88;45.15
6204;BME280;3135;42.602;23.468;2023-04-16T10:54:25;91970.16;;;17.52;45.63
6204;BME280;3135;42.602;23.468;2023-04-16T10:56:52;91961.72;;;17.37;45.69
6204;BME280;3135;42.602;23.468;2023-04-16T10:59:19;91935.41;;;17.34;45.60
6204;BME280;3135;42.602;23.468;2023-04-16T11:01:47;91958.56;;;18.06;43.86
6204;BME280;3135;42.602;23.468;2023-04-16T11:12:19;91930.00;;;17.34;45.07
6204;BME280;3135;42.602;23.468;2023-04-16T11:14:51;91959.81;;;17.73;44.27
6204;BME280;3135;42.602;23.468;2023-04-16T11:17:17;91949.72;;;17.70;44.92
6204;BME280;3135;42.602;23.468;2023-04-16T11:19:43;91928.66;;;17.60;44.27
6204;BME280;3135;42.602;23.468;2023-04-16T11:22:15;91948.84;;;17.66;45.25
6204;BME280;3135;42.602;23.468;2023-04-16T11:24:45;91931.13;;;17.84;44.43
6204;BME280;3135;42.602;23.468;2023-04-16T11:27:14;91942.03;;;17.37;46.37
6204;BME280;3135;42.602;23.468;2023-04-16T11:29:40;91919.88;;;17.47;46.52
6204;BME280;3135;42.602;23.468;2023-04-16T11:32:06;91916.06;;;17.13;46.97
6204;BME280;3135;42.602;23.468;2023-04-16T11:34:32;91891.44;;;16.99;46.22
6204;BME280;3135;42.602;23.468;2023-04-16T11:36:57;91920.50;;;17.41;45.53
6204;BME280;3135;42.602;23.468;2023-04-16T11:39:23;91922.94;;;17.46;45.35
6204;BME280;3135;42.602;23.468;2023-04-16T11:41:50;91919.59;;;17.52;45.62
6204;BME280;3135;42.602;23.468;2023-04-16T11:46:42;91904.41;;;17.63;43.84
6204;BME280;3135;42.602;23.468;2023-04-16T11:49:07;91907.56;;;17.50;45.08
6204;BME280;3135;42.602;23.468;2023-04-16T11:51:41;91895.56;;;17.12;44.69
6204;BME280;3135;42.602;23.468;2023-04-16T11:54:07;91903.97;;;17.26;44.94
6204;BME280;3135;42.602;23.468;2023-04-16T11:56:34;91901.06;;;17.16;44.30
6204;BME280;3135;42.602;23.468;2023-04-16T11:59:11;91902.94;;;17.31;44.45
6204;BME280;3135;42.602;23.468;2023-04-16T12:01:38;91888.06;;;17.21;45.04
6204;BME280;3135;42.602;23.468;2023-04-16T12:04:04;91896.28;;;17.09;45.36
6204;BME280;3135;42.602;23.468;2023-04-16T12:06:30;91895.34;;;16.85;47.35
6204;BME280;3135;42.602;23.468;2023-04-16T12:08:59;91900.47;;;16.91;45.17
6204;BME280;3135;42.602;23.468;2023-04-16T12:11:40;91892.16;;;17.15;45.54
6204;BME280;3135;42.602;23.468;2023-04-16T12:14:08;91879.50;;;17.00;45.40
6204;BME280;3135;42.602;23.468;2023-04-16T12:16:33;91871.75;;;16.82;46.02
6204;BME280;3135;42.602;23.468;2023-04-16T12:19:02;91872.59;;;17.02;46.88
6204;BME280;3135;42.602;23.468;2023-04-16T12:21:39;91881.56;;;16.59;46.85
6204;BME280;3135;42.602;23.468;2023-04-16T12:24:05;91858.59;;;16.65;48.00
6204;BME280;3135;42.602;23.468;2023-04-16T12:26:40;91871.50;;;16.72;46.33
6204;BME280;3135;42.602;23.468;2023-04-16T12:29:20;91862.97;;;16.54;46.62
6204;BME280;3135;42.602;23.468;2023-04-16T12:31:47;91846.44;;;16.71;45.69
6204;BME280;3135;42.602;23.468;2023-04-16T12:34:12;91870.81;;;17.26;45.42
6204;BME280;3135;42.602;23.468;2023-04-16T12:36:40;91806.84;;;17.10;44.53
6204;BME280;3135;42.602;23.468;2023-04-16T12:39:06;91851.66;;;17.50;43.70
6204;BME280;3135;42.602;23.468;2023-04-16T12:41:35;91847.66;;;17.44;43.43
6204;BME280;3135;42.602;23.468;2023-04-16T12:44:15;91847.63;;;17.60;42.13
6204;BME280;3135;42.602;23.468;2023-04-16T12:46:42;91856.25;;;17.50;41.87
6204;BME280;3135;42.602;23.468;2023-04-16T12:49:09;91830.91;;;17.00;41.35
6204;BME280;3135;42.602;23.468;2023-04-16T12:51:36;91833.72;;;16.88;41.69
6204;BME280;3135;42.602;23.468;2023-04-16T12:54:05;91846.50;;;16.91;42.13
6204;BME280;3135;42.602;23.468;2023-04-16T12:56:32;91827.38;;;17.15;42.10
6204;BME280;3135;42.602;23.468;2023-04-16T12:58:58;91831.72;;;17.74;40.60
6204;BME280;3135;42.602;23.468;2023-04-16T13:01:23;91826.63;;;17.92;39.89
6204;BME280;3135;42.602;23.468;2023-04-16T13:03:49;91810.34;;;17.88;40.38
6204;BME280;3135;42.602;23.468;2023-04-16T13:06:15;91810.09;;;17.97;40.50
6204;BME280;3135;42.602;23.468;2023-04-16T13:08:42;91804.00;;;18.00;41.37
6204;BME280;3135;42.602;23.468;2023-04-16T13:11:08;91821.78;;;18.24;41.44
6204;BME280;3135;42.602;23.468;2023-04-16T13:13:34;91808.78;;;17.68;41.78
6204;BME280;3135;42.602;23.468;2023-04-16T13:16:00;91810.56;;;17.60;41.49
6204;BME280;3135;42.602;23.468;2023-04-16T13:18:28;91821.72;;;17.40;41.88